sensor_id;sensor_type;location;lat;lon;timestamp;temperature;humidity
75961;SHT30;64644;48.914;2.254;2024-02-14T00:01:50;12.17;74.68
75961;SHT30;64644;48.914;2.254;2024-02-14T00:04:15;12.19;74.68
75961;SHT30;64644;48.914;2.254;2024-02-14T00:06:41;12.16;74.76
75961;SHT30;64644;48.914;2.254;2024-02-14T00:09:06;12.17;74.83
75961;SHT30;64644;48.914;2.254;2024-02-14T00:11:32;12.20;74.85
75961;SHT30;64644;48.914;2.254;2024-02-14T00:13:57;12.20;74.92
75961;SHT30;64644;48.914;2.254;2024-02-14T00:16:24;12.20;75.07
75961;SHT30;64644;48.914;2.254;2024-02-14T00:18:49;12.14;75.10
75961;SHT30;64644;48.914;2.254;2024-02-14T00:21:16;12.17;75.16
75961;SHT30;64644;48.914;2.254;2024-02-14T00:23:41;12.16;75.23
75961;SHT30;64644;48.914;2.254;2024-02-14T00:26:06;12.16;75.38
75961;SHT30;64644;48.914;2.254;2024-02-14T00:28:32;12.13;75.44
75961;SHT30;64644;48.914;2.254;2024-02-14T00:30:58;12.12;75.49
75961;SHT30;64644;48.914;2.254;2024-02-14T00:33:23;12.12;75.66
75961;SHT30;64644;48.914;2.254;2024-02-14T00:35:48;12.12;75.77
75961;SHT30;64644;48.914;2.254;2024-02-14T00:38:14;12.10;75.88
75961;SHT30;64644;48.914;2.254;2024-02-14T00:40:39;12.10;75.96
75961;SHT30;64644;48.914;2.254;2024-02-14T00:43:04;12.13;76.03
75961;SHT30;64644;48.914;2.254;2024-02-14T00:45:30;12.13;76.08
75961;SHT30;64644;48.914;2.254;2024-02-14T00:47:55;12.10;76.40
75961;SHT30;64644;48.914;2.254;2024-02-14T00:50:21;12.10;76.53
75961;SHT30;64644;48.914;2.254;2024-02-14T00:52:46;12.12;76.48
75961;SHT30;64644;48.914;2.254;2024-02-14T00:55:11;12.10;76.62
75961;SHT30;64644;48.914;2.254;2024-02-14T00:57:37;12.10;76.62
75961;SHT30;64644;48.914;2.254;2024-02-14T01:00:02;12.12;76.66
75961;SHT30;64644;48.914;2.254;2024-02-14T01:02:29;12.14;76.70
75961;SHT30;64644;48.914;2.254;2024-02-14T01:04:55;12.12;76.77
75961;SHT30;64644;48.914;2.254;2024-02-14T01:07:20;12.14;76.80
75961;SHT30;64644;48.914;2.254;2024-02-14T01:09:46;12.14;76.77
75961;SHT30;64644;48.914;2.254;2024-02-14T01:12:11;12.19;76.82
75961;SHT30;64644;48.914;2.254;2024-02-14T01:14:37;12.17;76.84
75961;SHT30;64644;48.914;2.254;2024-02-14T01:17:02;12.21;76.85
75961;SHT30;64644;48.914;2.254;2024-02-14T01:19:29;12.23;76.89
75961;SHT30;64644;48.914;2.254;2024-02-14T01:21:55;12.27;76.90
75961;SHT30;64644;48.914;2.254;2024-02-14T01:24:22;12.26;76.83
75961;SHT30;64644;48.914;2.254;2024-02-14T01:26:47;12.29;76.87
75961;SHT30;64644;48.914;2.254;2024-02-14T01:29:13;12.31;76.94
75961;SHT30;64644;48.914;2.254;2024-02-14T01:31:38;12.30;76.99
75961;SHT30;64644;48.914;2.254;2024-02-14T01:34:03;12.33;77.00
75961;SHT30;64644;48.914;2.254;2024-02-14T01:36:29;12.31;77.07
75961;SHT30;64644;48.914;2.254;2024-02-14T01:38:54;12.34;77.07
75961;SHT30;64644;48.914;2.254;2024-02-14T01:41:20;12.38;76.97
75961;SHT30;64644;48.914;2.254;2024-02-14T01:43:46;12.38;76.95
75961;SHT30;64644;48.914;2.254;2024-02-14T01:46:12;12.38;76.97
75961;SHT30;64644;48.914;2.254;2024-02-14T01:48:37;12.37;77.01
75961;SHT30;64644;48.914;2.254;2024-02-14T01:51:05;12.36;77.10
75961;SHT30;64644;48.914;2.254;2024-02-14T01:53:35;12.40;77.08
75961;SHT30;64644;48.914;2.254;2024-02-14T01:56:01;12.42;77.03
75961;SHT30;64644;48.914;2.254;2024-02-14T01:58:29;12.44;76.93
75961;SHT30;64644;48.914;2.254;2024-02-14T02:00:55;12.44;76.99
75961;SHT30;64644;48.914;2.254;2024-02-14T02:03:23;12.42;76.99
75961;SHT30;64644;48.914;2.254;2024-02-14T02:05:49;12.44;77.02
75961;SHT30;64644;48.914;2.254;2024-02-14T02:08:14;12.42;77.11
75961;SHT30;64644;48.914;2.254;2024-02-14T02:10:40;12.45;77.10
75961;SHT30;64644;48.914;2.254;2024-02-14T02:13:06;12.47;77.07
75961;SHT30;64644;48.914;2.254;2024-02-14T02:15:31;12.48;77.09
75961;SHT30;64644;48.914;2.254;2024-02-14T02:17:57;12.48;77.10
75961;SHT30;64644;48.914;2.254;2024-02-14T02:20:23;12.49;77.12
75961;SHT30;64644;48.914;2.254;2024-02-14T02:22:48;12.47;77.21
75961;SHT30;64644;48.914;2.254;2024-02-14T02:25:14;12.48;77.25
75961;SHT30;64644;48.914;2.254;2024-02-14T02:27:40;12.47;77.33
75961;SHT30;64644;48.914;2.254;2024-02-14T02:30:06;12.48;77.37
75961;SHT30;64644;48.914;2.254;2024-02-14T02:32:32;12.48;77.49
75961;SHT30;64644;48.914;2.254;2024-02-14T02:34:57;12.48;77.57
75961;SHT30;64644;48.914;2.254;2024-02-14T02:37:24;12.44;77.67
75961;SHT30;64644;48.914;2.254;2024-02-14T02:39:49;12.48;77.72
75961;SHT30;64644;48.914;2.254;2024-02-14T02:42:16;12.47;77.79
75961;SHT30;64644;48.914;2.254;2024-02-14T02:44:42;12.47;77.86
75961;SHT30;64644;48.914;2.254;2024-02-14T02:47:07;12.47;77.98
75961;SHT30;64644;48.914;2.254;2024-02-14T02:49:33;12.48;78.07
75961;SHT30;64644;48.914;2.254;2024-02-14T02:51:58;12.45;78.08
75961;SHT30;64644;48.914;2.254;2024-02-14T02:54:23;12.49;78.20
75961;SHT30;64644;48.914;2.254;2024-02-14T02:56:49;12.52;78.21
75961;SHT30;64644;48.914;2.254;2024-02-14T02:59:15;12.54;78.34
75961;SHT30;64644;48.914;2.254;2024-02-14T03:01:42;12.58;78.33
75961;SHT30;64644;48.914;2.254;2024-02-14T03:04:07;12.59;78.24
75961;SHT30;64644;48.914;2.254;2024-02-14T03:06:33;12.62;78.04
75961;SHT30;64644;48.914;2.254;2024-02-14T03:08:59;12.59;77.97
75961;SHT30;64644;48.914;2.254;2024-02-14T03:11:24;12.58;77.93
75961;SHT30;64644;48.914;2.254;2024-02-14T03:13:52;12.54;78.03
75961;SHT30;64644;48.914;2.254;2024-02-14T03:16:17;12.52;77.97
75961;SHT30;64644;48.914;2.254;2024-02-14T03:18:43;12.49;78.06
75961;SHT30;64644;48.914;2.254;2024-02-14T03:21:09;12.48;78.15
75961;SHT30;64644;48.914;2.254;2024-02-14T03:23:34;12.49;78.13
75961;SHT30;64644;48.914;2.254;2024-02-14T03:25:59;12.45;78.15
75961;SHT30;64644;48.914;2.254;2024-02-14T03:28:25;12.45;78.18
75961;SHT30;64644;48.914;2.254;2024-02-14T03:30:51;12.48;78.30
75961;SHT30;64644;48.914;2.254;2024-02-14T03:33:17;12.51;78.45
75961;SHT30;64644;48.914;2.254;2024-02-14T03:35:42;12.52;78.25
75961;SHT30;64644;48.914;2.254;2024-02-14T03:38:08;12.55;78.25
75961;SHT30;64644;48.914;2.254;2024-02-14T03:40:34;12.54;78.22
75961;SHT30;64644;48.914;2.254;2024-02-14T03:43:01;12.58;78.12
75961;SHT30;64644;48.914;2.254;2024-02-14T03:45:26;12.58;78.03
75961;SHT30;64644;48.914;2.254;2024-02-14T03:47:55;12.58;78.17
75961;SHT30;64644;48.914;2.254;2024-02-14T03:50:20;12.59;78.15
75961;SHT30;64644;48.914;2.254;2024-02-14T03:52:45;12.59;78.20
75961;SHT30;64644;48.914;2.254;2024-02-14T03:55:14;12.62;78.13
75961;SHT30;64644;48.914;2.254;2024-02-14T03:57:42;12.61;78.23
75961;SHT30;64644;48.914;2.254;2024-02-14T04:00:10;12.64;78.25
75961;SHT30;64644;48.914;2.254;2024-02-14T04:02:36;12.64;78.21
75961;SHT30;64644;48.914;2.254;2024-02-14T04:05:01;12.64;78.28
75961;SHT30;64644;48.914;2.254;2024-02-14T04:07:32;12.62;78.34
75961;SHT30;64644;48.914;2.254;2024-02-14T04:09:59;12.61;78.38
75961;SHT30;64644;48.914;2.254;2024-02-14T04:12:24;12.61;78.45
75961;SHT30;64644;48.914;2.254;2024-02-14T04:14:50;12.64;78.41
75961;SHT30;64644;48.914;2.254;2024-02-14T04:17:15;12.64;78.43
75961;SHT30;64644;48.914;2.254;2024-02-14T04:19:40;12.64;78.52
75961;SHT30;64644;48.914;2.254;2024-02-14T04:22:06;12.66;78.50
75961;SHT30;64644;48.914;2.254;2024-02-14T04:24:35;12.69;78.55
75961;SHT30;64644;48.914;2.254;2024-02-14T04:27:00;12.69;78.48
75961;SHT30;64644;48.914;2.254;2024-02-14T04:29:28;12.71;78.40
75961;SHT30;64644;48.914;2.254;2024-02-14T04:31:56;12.71;78.47
75961;SHT30;64644;48.914;2.254;2024-02-14T04:34:21;12.74;78.41
75961;SHT30;64644;48.914;2.254;2024-02-14T04:36:46;12.76;78.30
75961;SHT30;64644;48.914;2.254;2024-02-14T04:39:12;12.74;78.36
75961;SHT30;64644;48.914;2.254;2024-02-14T04:41:37;12.76;78.39
75961;SHT30;64644;48.914;2.254;2024-02-14T04:44:04;12.78;78.40
75961;SHT30;64644;48.914;2.254;2024-02-14T04:46:33;12.78;78.51
75961;SHT30;64644;48.914;2.254;2024-02-14T04:49:00;12.79;78.50
75961;SHT30;64644;48.914;2.254;2024-02-14T04:51:29;12.83;78.46
75961;SHT30;64644;48.914;2.254;2024-02-14T04:53:54;12.83;78.62
75961;SHT30;64644;48.914;2.254;2024-02-14T04:56:23;12.86;78.58
75961;SHT30;64644;48.914;2.254;2024-02-14T04:58:49;12.86;78.61
75961;SHT30;64644;48.914;2.254;2024-02-14T05:01:14;12.91;78.68
75961;SHT30;64644;48.914;2.254;2024-02-14T05:03:40;12.91;78.55
75961;SHT30;64644;48.914;2.254;2024-02-14T05:06:06;12.91;78.57
75961;SHT30;64644;48.914;2.254;2024-02-14T05:08:31;12.89;78.60
75961;SHT30;64644;48.914;2.254;2024-02-14T05:10:57;12.89;78.63
75961;SHT30;64644;48.914;2.254;2024-02-14T05:13:22;12.89;78.67
75961;SHT30;64644;48.914;2.254;2024-02-14T05:15:48;12.89;78.71
75961;SHT30;64644;48.914;2.254;2024-02-14T05:18:15;12.88;78.72
75961;SHT30;64644;48.914;2.254;2024-02-14T05:20:41;12.91;78.81
75961;SHT30;64644;48.914;2.254;2024-02-14T05:23:06;12.91;78.78
75961;SHT30;64644;48.914;2.254;2024-02-14T05:25:31;12.92;78.84
75961;SHT30;64644;48.914;2.254;2024-02-14T05:27:58;12.95;78.94
75961;SHT30;64644;48.914;2.254;2024-02-14T05:30:23;12.95;78.80
75961;SHT30;64644;48.914;2.254;2024-02-14T05:32:50;12.92;78.88
75961;SHT30;64644;48.914;2.254;2024-02-14T05:35:17;12.99;78.94
75961;SHT30;64644;48.914;2.254;2024-02-14T05:37:43;12.97;78.92
75961;SHT30;64644;48.914;2.254;2024-02-14T05:40:08;13.00;78.87
75961;SHT30;64644;48.914;2.254;2024-02-14T05:42:34;13.02;78.84
75961;SHT30;64644;48.914;2.254;2024-02-14T05:44:59;13.03;78.88
75961;SHT30;64644;48.914;2.254;2024-02-14T05:47:25;13.06;78.80
75961;SHT30;64644;48.914;2.254;2024-02-14T05:49:50;13.06;78.66
75961;SHT30;64644;48.914;2.254;2024-02-14T05:52:16;13.04;78.64
75961;SHT30;64644;48.914;2.254;2024-02-14T05:54:41;13.04;78.68
75961;SHT30;64644;48.914;2.254;2024-02-14T05:57:07;13.02;78.79
75961;SHT30;64644;48.914;2.254;2024-02-14T05:59:33;13.06;78.83
75961;SHT30;64644;48.914;2.254;2024-02-14T06:01:58;13.06;78.78
75961;SHT30;64644;48.914;2.254;2024-02-14T06:04:23;13.07;78.85
75961;SHT30;64644;48.914;2.254;2024-02-14T06:06:49;13.04;78.77
75961;SHT30;64644;48.914;2.254;2024-02-14T06:09:14;13.06;78.92
75961;SHT30;64644;48.914;2.254;2024-02-14T06:11:40;13.04;79.01
75961;SHT30;64644;48.914;2.254;2024-02-14T06:14:06;13.09;79.05
75961;SHT30;64644;48.914;2.254;2024-02-14T06:16:32;13.10;78.92
75961;SHT30;64644;48.914;2.254;2024-02-14T06:18:58;13.11;78.89
75961;SHT30;64644;48.914;2.254;2024-02-14T06:21:23;13.09;78.89
75961;SHT30;64644;48.914;2.254;2024-02-14T06:23:49;13.11;79.15
75961;SHT30;64644;48.914;2.254;2024-02-14T06:26:14;13.11;79.14
75961;SHT30;64644;48.914;2.254;2024-02-14T06:28:39;13.14;79.30
75961;SHT30;64644;48.914;2.254;2024-02-14T06:31:05;13.19;79.28
75961;SHT30;64644;48.914;2.254;2024-02-14T06:33:30;13.23;79.09
75961;SHT30;64644;48.914;2.254;2024-02-14T06:35:56;13.23;78.96
75961;SHT30;64644;48.914;2.254;2024-02-14T06:38:21;13.24;79.10
75961;SHT30;64644;48.914;2.254;2024-02-14T06:40:46;13.24;78.98
75961;SHT30;64644;48.914;2.254;2024-02-14T06:43:12;13.24;79.04
75961;SHT30;64644;48.914;2.254;2024-02-14T06:45:37;13.28;79.15
75961;SHT30;64644;48.914;2.254;2024-02-14T06:48:03;13.30;79.02
75961;SHT30;64644;48.914;2.254;2024-02-14T06:50:29;13.30;79.04
75961;SHT30;64644;48.914;2.254;2024-02-14T06:52:54;13.30;78.99
75961;SHT30;64644;48.914;2.254;2024-02-14T06:55:24;13.33;79.05
75961;SHT30;64644;48.914;2.254;2024-02-14T06:57:50;13.30;79.15
75961;SHT30;64644;48.914;2.254;2024-02-14T07:00:15;13.36;79.24
75961;SHT30;64644;48.914;2.254;2024-02-14T07:02:41;13.38;79.31
75961;SHT30;64644;48.914;2.254;2024-02-14T07:05:08;13.43;79.23
75961;SHT30;64644;48.914;2.254;2024-02-14T07:07:37;13.44;79.15
75961;SHT30;64644;48.914;2.254;2024-02-14T07:10:03;13.47;79.16
75961;SHT30;64644;48.914;2.254;2024-02-14T07:12:31;13.53;79.16
75961;SHT30;64644;48.914;2.254;2024-02-14T07:14:56;13.53;79.04
75961;SHT30;64644;48.914;2.254;2024-02-14T07:17:22;13.57;78.97
75961;SHT30;64644;48.914;2.254;2024-02-14T07:19:47;13.57;78.84
75961;SHT30;64644;48.914;2.254;2024-02-14T07:22:15;13.55;78.91
75961;SHT30;64644;48.914;2.254;2024-02-14T07:24:41;13.58;78.88
75961;SHT30;64644;48.914;2.254;2024-02-14T07:27:07;13.59;78.84
75961;SHT30;64644;48.914;2.254;2024-02-14T07:29:33;13.61;78.90
75961;SHT30;64644;48.914;2.254;2024-02-14T07:32:01;13.64;78.88
75961;SHT30;64644;48.914;2.254;2024-02-14T07:34:27;13.66;78.88
75961;SHT30;64644;48.914;2.254;2024-02-14T07:36:52;13.66;78.75
75961;SHT30;64644;48.914;2.254;2024-02-14T07:39:17;13.69;78.66
75961;SHT30;64644;48.914;2.254;2024-02-14T07:41:43;13.69;78.46
75961;SHT30;64644;48.914;2.254;2024-02-14T07:44:09;13.65;78.61
75961;SHT30;64644;48.914;2.254;2024-02-14T07:46:34;13.66;78.70
75961;SHT30;64644;48.914;2.254;2024-02-14T07:49:00;13.69;78.78
75961;SHT30;64644;48.914;2.254;2024-02-14T07:51:25;13.73;78.82
75961;SHT30;64644;48.914;2.254;2024-02-14T07:53:51;13.75;78.73
75961;SHT30;64644;48.914;2.254;2024-02-14T07:56:16;13.78;78.80
75961;SHT30;64644;48.914;2.254;2024-02-14T07:58:43;13.79;78.65
75961;SHT30;64644;48.914;2.254;2024-02-14T08:01:09;13.81;78.64
75961;SHT30;64644;48.914;2.254;2024-02-14T08:03:34;13.83;78.63
75961;SHT30;64644;48.914;2.254;2024-02-14T08:06:00;13.85;78.61
75961;SHT30;64644;48.914;2.254;2024-02-14T08:08:26;13.89;78.55
75961;SHT30;64644;48.914;2.254;2024-02-14T08:10:52;13.90;78.51
75961;SHT30;64644;48.914;2.254;2024-02-14T08:13:18;13.92;78.54
75961;SHT30;64644;48.914;2.254;2024-02-14T08:15:43;13.96;78.55
75961;SHT30;64644;48.914;2.254;2024-02-14T08:18:09;13.99;78.42
75961;SHT30;64644;48.914;2.254;2024-02-14T08:20:34;13.99;78.38
75961;SHT30;64644;48.914;2.254;2024-02-14T08:22:59;14.05;78.43
75961;SHT30;64644;48.914;2.254;2024-02-14T08:25:25;14.05;78.28
75961;SHT30;64644;48.914;2.254;2024-02-14T08:27:51;14.07;78.27
75961;SHT30;64644;48.914;2.254;2024-02-14T08:30:17;14.07;78.31
75961;SHT30;64644;48.914;2.254;2024-02-14T08:32:42;14.10;78.26
75961;SHT30;64644;48.914;2.254;2024-02-14T08:35:08;14.14;78.28
75961;SHT30;64644;48.914;2.254;2024-02-14T08:37:35;14.14;78.22
75961;SHT30;64644;48.914;2.254;2024-02-14T08:40:02;14.17;78.17
75961;SHT30;64644;48.914;2.254;2024-02-14T08:42:31;14.17;78.16
75961;SHT30;64644;48.914;2.254;2024-02-14T08:44:56;14.21;78.06
75961;SHT30;64644;48.914;2.254;2024-02-14T08:47:22;14.21;78.02
75961;SHT30;64644;48.914;2.254;2024-02-14T08:49:47;14.24;78.02
75961;SHT30;64644;48.914;2.254;2024-02-14T08:52:12;14.28;78.01
75961;SHT30;64644;48.914;2.254;2024-02-14T08:54:38;14.31;78.03
75961;SHT30;64644;48.914;2.254;2024-02-14T08:57:04;14.33;77.96
75961;SHT30;64644;48.914;2.254;2024-02-14T08:59:29;14.35;77.96
75961;SHT30;64644;48.914;2.254;2024-02-14T09:01:55;14.35;77.88
75961;SHT30;64644;48.914;2.254;2024-02-14T09:04:21;14.37;77.90
75961;SHT30;64644;48.914;2.254;2024-02-14T09:06:46;14.38;77.89
75961;SHT30;64644;48.914;2.254;2024-02-14T09:09:11;14.41;77.74
75961;SHT30;64644;48.914;2.254;2024-02-14T09:11:39;14.42;77.63
75961;SHT30;64644;48.914;2.254;2024-02-14T09:14:06;14.44;77.60
75961;SHT30;64644;48.914;2.254;2024-02-14T09:16:35;14.41;77.51
75961;SHT30;64644;48.914;2.254;2024-02-14T09:19:00;14.41;77.56
75961;SHT30;64644;48.914;2.254;2024-02-14T09:21:26;14.41;77.52
75961;SHT30;64644;48.914;2.254;2024-02-14T09:23:53;14.41;77.64
75961;SHT30;64644;48.914;2.254;2024-02-14T09:26:18;14.41;77.63
75961;SHT30;64644;48.914;2.254;2024-02-14T09:28:43;14.42;77.60
75961;SHT30;64644;48.914;2.254;2024-02-14T09:31:09;14.42;77.64
75961;SHT30;64644;48.914;2.254;2024-02-14T09:33:36;14.44;77.69
75961;SHT30;64644;48.914;2.254;2024-02-14T09:36:03;14.48;77.67
75961;SHT30;64644;48.914;2.254;2024-02-14T09:38:29;14.46;77.73
75961;SHT30;64644;48.914;2.254;2024-02-14T09:40:58;14.54;77.70
75961;SHT30;64644;48.914;2.254;2024-02-14T09:43:32;14.52;77.71
75961;SHT30;64644;48.914;2.254;2024-02-14T09:45:59;14.60;77.65
75961;SHT30;64644;48.914;2.254;2024-02-14T09:48:25;14.62;77.73
75961;SHT30;64644;48.914;2.254;2024-02-14T09:50:52;14.68;77.62
75961;SHT30;64644;48.914;2.254;2024-02-14T09:53:18;14.69;77.65
75961;SHT30;64644;48.914;2.254;2024-02-14T09:55:46;14.75;77.56
75961;SHT30;64644;48.914;2.254;2024-02-14T09:58:12;14.78;77.48
75961;SHT30;64644;48.914;2.254;2024-02-14T10:00:37;14.78;77.38
75961;SHT30;64644;48.914;2.254;2024-02-14T10:03:03;14.79;77.46
75961;SHT30;64644;48.914;2.254;2024-02-14T10:05:28;14.80;77.42
75961;SHT30;64644;48.914;2.254;2024-02-14T10:07:56;14.83;77.38
75961;SHT30;64644;48.914;2.254;2024-02-14T10:10:22;14.89;77.39
75961;SHT30;64644;48.914;2.254;2024-02-14T10:12:47;14.93;77.32
75961;SHT30;64644;48.914;2.254;2024-02-14T10:15:12;14.99;77.24
75961;SHT30;64644;48.914;2.254;2024-02-14T10:17:41;15.03;77.13
75961;SHT30;64644;48.914;2.254;2024-02-14T10:20:07;15.07;77.07
75961;SHT30;64644;48.914;2.254;2024-02-14T10:22:36;15.08;76.85
75961;SHT30;64644;48.914;2.254;2024-02-14T10:25:05;15.13;76.80
75961;SHT30;64644;48.914;2.254;2024-02-14T10:27:38;15.14;76.75
75961;SHT30;64644;48.914;2.254;2024-02-14T10:30:07;15.20;76.74
75961;SHT30;64644;48.914;2.254;2024-02-14T10:32:39;15.19;76.69
75961;SHT30;64644;48.914;2.254;2024-02-14T10:35:13;15.26;76.63
75961;SHT30;64644;48.914;2.254;2024-02-14T10:37:40;15.26;76.55
75961;SHT30;64644;48.914;2.254;2024-02-14T10:40:06;15.23;76.46
75961;SHT30;64644;48.914;2.254;2024-02-14T10:42:32;15.27;76.53
75961;SHT30;64644;48.914;2.254;2024-02-14T10:45:01;15.27;76.49
75961;SHT30;64644;48.914;2.254;2024-02-14T10:47:32;15.27;76.46
75961;SHT30;64644;48.914;2.254;2024-02-14T10:50:00;15.31;76.50
75961;SHT30;64644;48.914;2.254;2024-02-14T10:52:32;15.30;76.49
75961;SHT30;64644;48.914;2.254;2024-02-14T10:55:04;15.31;76.45
75961;SHT30;64644;48.914;2.254;2024-02-14T10:57:31;15.32;76.44
75961;SHT30;64644;48.914;2.254;2024-02-14T11:00:08;15.34;76.49
75961;SHT30;64644;48.914;2.254;2024-02-14T11:02:35;15.34;76.45
75961;SHT30;64644;48.914;2.254;2024-02-14T11:05:02;15.34;76.46
75961;SHT30;64644;48.914;2.254;2024-02-14T11:07:28;15.32;76.46
75961;SHT30;64644;48.914;2.254;2024-02-14T11:12:35;15.28;76.52
75961;SHT30;64644;48.914;2.254;2024-02-14T11:15:21;15.28;76.56
75961;SHT30;64644;48.914;2.254;2024-02-14T11:17:47;15.27;76.59
75961;SHT30;64644;48.914;2.254;2024-02-14T11:23:00;15.30;76.70
75961;SHT30;64644;48.914;2.254;2024-02-14T11:25:35;15.31;76.81
75961;SHT30;64644;48.914;2.254;2024-02-14T11:28:12;15.38;76.74
75961;SHT30;64644;48.914;2.254;2024-02-14T11:30:39;15.40;76.67
75961;SHT30;64644;48.914;2.254;2024-02-14T11:35:45;15.38;76.50
75961;SHT30;64644;48.914;2.254;2024-02-14T11:38:11;15.34;76.43
75961;SHT30;64644;48.914;2.254;2024-02-14T11:40:38;15.34;76.46
75961;SHT30;64644;48.914;2.254;2024-02-14T11:43:18;15.34;76.47
75961;SHT30;64644;48.914;2.254;2024-02-14T11:45:44;15.34;76.41
75961;SHT30;64644;48.914;2.254;2024-02-14T11:48:12;15.32;76.43
75961;SHT30;64644;48.914;2.254;2024-02-14T11:50:42;15.31;80.96
75961;SHT30;64644;48.914;2.254;2024-02-14T11:53:09;15.31;77.49
75961;SHT30;64644;48.914;2.254;2024-02-14T11:55:39;15.30;76.84
75961;SHT30;64644;48.914;2.254;2024-02-14T11:58:12;15.30;76.76
75961;SHT30;64644;48.914;2.254;2024-02-14T12:00:42;15.30;76.76
75961;SHT30;64644;48.914;2.254;2024-02-14T12:03:12;15.30;76.80
75961;SHT30;64644;48.914;2.254;2024-02-14T12:05:38;15.32;76.78
75961;SHT30;64644;48.914;2.254;2024-02-14T12:08:07;15.32;76.69
75961;SHT30;64644;48.914;2.254;2024-02-14T12:10:33;15.35;76.72
75961;SHT30;64644;48.914;2.254;2024-02-14T12:13:12;15.42;76.68
75961;SHT30;64644;48.914;2.254;2024-02-14T12:15:42;15.45;76.53
75961;SHT30;64644;48.914;2.254;2024-02-14T12:18:09;15.47;76.47
75961;SHT30;64644;48.914;2.254;2024-02-14T12:20:35;15.45;76.42
75961;SHT30;64644;48.914;2.254;2024-02-14T12:23:02;15.45;76.58
75961;SHT30;64644;48.914;2.254;2024-02-14T12:25:28;15.48;76.60
75961;SHT30;64644;48.914;2.254;2024-02-14T12:27:56;15.51;76.57
75961;SHT30;64644;48.914;2.254;2024-02-14T12:30:22;15.52;76.52
75961;SHT30;64644;48.914;2.254;2024-02-14T12:33:07;15.57;76.44
75961;SHT30;64644;48.914;2.254;2024-02-14T12:35:34;15.55;76.28
75961;SHT30;64644;48.914;2.254;2024-02-14T12:38:08;15.52;76.24
75961;SHT30;64644;48.914;2.254;2024-02-14T12:40:35;15.55;76.28
75961;SHT30;64644;48.914;2.254;2024-02-14T12:43:01;15.58;76.31
75961;SHT30;64644;48.914;2.254;2024-02-14T12:45:26;15.62;76.22
75961;SHT30;64644;48.914;2.254;2024-02-14T12:47:52;15.61;76.13
75961;SHT30;64644;48.914;2.254;2024-02-14T12:50:18;15.63;76.02
75961;SHT30;64644;48.914;2.254;2024-02-14T12:52:45;15.68;75.81
75961;SHT30;64644;48.914;2.254;2024-02-14T12:55:11;15.66;75.72
75961;SHT30;64644;48.914;2.254;2024-02-14T12:57:36;15.72;75.69
75961;SHT30;64644;48.914;2.254;2024-02-14T13:00:02;15.78;75.71
75961;SHT30;64644;48.914;2.254;2024-02-14T13:02:31;15.79;75.65
75961;SHT30;64644;48.914;2.254;2024-02-14T13:04:57;15.85;75.57
75961;SHT30;64644;48.914;2.254;2024-02-14T13:07:22;15.90;75.36
75961;SHT30;64644;48.914;2.254;2024-02-14T13:09:48;15.94;75.36
75961;SHT30;64644;48.914;2.254;2024-02-14T13:12:13;16.03;75.26
75961;SHT30;64644;48.914;2.254;2024-02-14T13:14:39;16.13;75.23
75961;SHT30;64644;48.914;2.254;2024-02-14T13:17:05;16.20;75.03
75961;SHT30;64644;48.914;2.254;2024-02-14T13:19:30;16.28;74.89
75961;SHT30;64644;48.914;2.254;2024-02-14T13:21:55;16.31;74.78
75961;SHT30;64644;48.914;2.254;2024-02-14T13:24:21;16.34;74.57
75961;SHT30;64644;48.914;2.254;2024-02-14T13:26:46;16.30;74.44
75961;SHT30;64644;48.914;2.254;2024-02-14T13:29:11;16.30;74.49
75961;SHT30;64644;48.914;2.254;2024-02-14T13:31:37;16.30;74.36
75961;SHT30;64644;48.914;2.254;2024-02-14T13:34:02;16.32;74.33
75961;SHT30;64644;48.914;2.254;2024-02-14T13:36:29;16.37;74.18
75961;SHT30;64644;48.914;2.254;2024-02-14T13:38:54;16.38;74.05
75961;SHT30;64644;48.914;2.254;2024-02-14T13:41:19;16.41;74.04
75961;SHT30;64644;48.914;2.254;2024-02-14T13:43:45;16.49;73.92
75961;SHT30;64644;48.914;2.254;2024-02-14T13:46:10;16.52;73.76
75961;SHT30;64644;48.914;2.254;2024-02-14T13:48:36;16.54;73.47
75961;SHT30;64644;48.914;2.254;2024-02-14T13:51:01;16.61;73.37
75961;SHT30;64644;48.914;2.254;2024-02-14T13:53:28;16.61;72.97
75961;SHT30;64644;48.914;2.254;2024-02-14T13:55:54;16.66;72.79
75961;SHT30;64644;48.914;2.254;2024-02-14T13:58:19;16.75;72.79
75961;SHT30;64644;48.914;2.254;2024-02-14T14:00:45;16.82;72.48
75961;SHT30;64644;48.914;2.254;2024-02-14T14:03:10;16.77;72.30
75961;SHT30;64644;48.914;2.254;2024-02-14T14:05:36;16.76;72.15
75961;SHT30;64644;48.914;2.254;2024-02-14T14:08:02;16.76;72.18
75961;SHT30;64644;48.914;2.254;2024-02-14T14:10:28;16.71;72.16
75961;SHT30;64644;48.914;2.254;2024-02-14T14:12:54;16.71;72.06
75961;SHT30;64644;48.914;2.254;2024-02-14T14:15:20;16.73;72.14
75961;SHT30;64644;48.914;2.254;2024-02-14T14:17:46;16.76;72.04
75961;SHT30;64644;48.914;2.254;2024-02-14T14:20:11;16.76;72.04
75961;SHT30;64644;48.914;2.254;2024-02-14T14:22:37;16.80;72.02
75961;SHT30;64644;48.914;2.254;2024-02-14T14:25:06;16.84;72.03
75961;SHT30;64644;48.914;2.254;2024-02-14T14:27:33;16.92;71.90
75961;SHT30;64644;48.914;2.254;2024-02-14T14:29:58;16.94;71.82
75961;SHT30;64644;48.914;2.254;2024-02-14T14:32:24;16.94;71.67
75961;SHT30;64644;48.914;2.254;2024-02-14T14:34:49;16.94;71.53
75961;SHT30;64644;48.914;2.254;2024-02-14T14:37:14;16.97;71.51
75961;SHT30;64644;48.914;2.254;2024-02-14T14:39:40;16.99;71.42
75961;SHT30;64644;48.914;2.254;2024-02-14T14:42:06;17.00;71.47
75961;SHT30;64644;48.914;2.254;2024-02-14T14:44:33;17.07;71.55
75961;SHT30;64644;48.914;2.254;2024-02-14T14:46:59;17.17;71.50
75961;SHT30;64644;48.914;2.254;2024-02-14T14:49:25;17.21;71.36
75961;SHT30;64644;48.914;2.254;2024-02-14T14:51:51;17.17;71.01
75961;SHT30;64644;48.914;2.254;2024-02-14T14:54:16;17.14;70.85
75961;SHT30;64644;48.914;2.254;2024-02-14T14:56:43;17.07;70.66
75961;SHT30;64644;48.914;2.254;2024-02-14T14:59:08;17.06;70.71
75961;SHT30;64644;48.914;2.254;2024-02-14T15:01:35;17.09;70.85
75961;SHT30;64644;48.914;2.254;2024-02-14T15:04:01;17.13;70.89
75961;SHT30;64644;48.914;2.254;2024-02-14T15:06:26;17.18;70.95
75961;SHT30;64644;48.914;2.254;2024-02-14T15:08:52;17.16;70.88
75961;SHT30;64644;48.914;2.254;2024-02-14T15:11:18;17.13;70.88
75961;SHT30;64644;48.914;2.254;2024-02-14T15:13:46;17.13;70.79
75961;SHT30;64644;48.914;2.254;2024-02-14T15:16:13;17.13;70.84
75961;SHT30;64644;48.914;2.254;2024-02-14T15:18:38;17.11;70.75
75961;SHT30;64644;48.914;2.254;2024-02-14T15:21:04;17.09;70.81
75961;SHT30;64644;48.914;2.254;2024-02-14T15:23:29;17.02;70.74
75961;SHT30;64644;48.914;2.254;2024-02-14T15:25:55;17.03;70.79
75961;SHT30;64644;48.914;2.254;2024-02-14T15:28:32;17.02;70.84
75961;SHT30;64644;48.914;2.254;2024-02-14T15:30:59;16.97;70.80
75961;SHT30;64644;48.914;2.254;2024-02-14T15:33:43;16.96;70.85